WFDK1: Walnut River, Winfield, KS

                                SHEF ID:       WFDK1     WALNUT R AT WINFIELD, KS
STATION TYPE:
Regulating: Stage = 18.00, Flow = 18601

PRECIP STAGE RIV-FLOW BAT-LOAD
in ft cfs volt
Ccp-Rev Ccp-Rev Ccp-Rev Ccp-Rev
(America/Chicago)
04/28 00:00 0.00 2.15 548 12.11
04/28 01:00 0.00 2.14 543 12.09
04/28 02:00 0.00 2.11 529 12.08
04/28 03:00 0.00 2.10 525 12.07
04/28 04:00 0.00 2.07 511 12.04
04/28 05:00 0.00 2.06 507 12.04
04/28 06:00 0.00 2.04 498 12.02
04/28 07:00 0.00 2.03 493 12.00
04/28 08:00 0.00 2.01 484 11.98
04/28 09:00 0.00 2.00 480 12.00
04/28 10:00 0.00 1.99 475 12.17
04/28 11:00 0.00 1.97 467 12.60
04/28 12:00 0.00 1.96 462 12.77
04/28 13:00 0.00 1.95 458 12.77
04/28 14:00 0.00 1.94 454 13.10
04/28 15:00 0.00 1.93 449 12.71
04/28 16:00 0.00 1.91 441 12.97
04/28 17:00 0.00 1.91 441 12.70
04/28 18:00 0.00 1.89 432 12.51
04/28 19:00 0.00 1.88 428 12.34
04/28 20:00 0.00 1.87 424 12.25
04/28 21:00 0.00 1.87 424 12.19
04/28 22:00 0.00 1.86 419 12.17
04/28 23:00 0.00 1.85 415 12.14
Data processed at Wed 29Apr2026 04:06 GMT

NOTICE: If you are parsing this page

Please convert to using our Data API. Starting early 2026 we will be migrating to: https://water.usace.army.mil with modern pages rendered in JavaScript. When this migration completes you will no longer be able to scrape this page! CWMSDataAPI (CDA)

Timeseries IDs (TSIDs)

TSIDs used from left to right in the data table
WINF.Precip-Inc.Total.1Hour.1Hour.Ccp-Rev
WINF.Stage.Inst.1Hour.0.Ccp-Rev
WINF.Flow.Inst.1Hour.0.Ccp-Rev
WINF.Volt-Battery Load.Inst.1Hour.0.Ccp-Rev

                            

All information presented herein is the property of the government of the United States of America and may be revised or deleted at any time without prior notice. Dissemination of this information without the expressed written consent of the Public Affairs Office, Tulsa District U.S. Army Corps of Engineers is strictly prohibited. These data are gathered electronically and, as presented, have NOT undergone any form of quality control. These data are NOT guaranteed to be valid or correct.